createdAt,value
2022-08-16T00:00:04.441Z,2.70
2022-08-16T00:01:01.232Z,3.00
2022-08-16T00:02:00.265Z,2.50
2022-08-16T00:03:00.197Z,2.70
2022-08-16T00:04:00.255Z,2.70
2022-08-16T00:05:00.388Z,2.80
2022-08-16T00:06:00.182Z,3.10
2022-08-16T00:07:00.150Z,2.70
2022-08-16T00:08:00.149Z,2.90
2022-08-16T00:09:00.151Z,3.30
2022-08-16T00:10:00.263Z,2.90
2022-08-16T00:11:00.132Z,2.90
2022-08-16T00:12:00.098Z,3.00
2022-08-16T00:13:00.068Z,3.00
2022-08-16T00:14:00.096Z,2.80
2022-08-16T00:15:00.069Z,3.00
2022-08-16T00:16:00.112Z,2.60
2022-08-16T00:17:18.626Z,3.00
2022-08-16T00:18:01.099Z,3.10
2022-08-16T00:19:00.026Z,3.80
2022-08-16T00:20:00.078Z,3.10
2022-08-16T00:20:59.966Z,2.90
2022-08-16T00:22:03.201Z,3.10
2022-08-16T00:23:00.938Z,3.10
2022-08-16T00:23:59.986Z,3.20
2022-08-16T00:25:01.012Z,3.00
2022-08-16T00:26:35.154Z,2.80
2022-08-16T00:27:01.004Z,3.40
2022-08-16T00:27:59.924Z,3.20
2022-08-16T00:28:59.877Z,3.20
2022-08-16T00:30:08.989Z,3.10
2022-08-16T00:31:01.060Z,3.00
2022-08-16T00:32:05.750Z,3.00
2022-08-16T00:33:00.819Z,2.90
2022-08-16T00:33:59.804Z,3.00
2022-08-16T00:35:00.657Z,3.20
2022-08-16T00:36:00.314Z,3.10
2022-08-16T00:36:59.840Z,2.80
2022-08-16T00:37:59.743Z,2.80
2022-08-16T00:38:59.732Z,2.90
2022-08-16T00:39:59.802Z,3.10
2022-08-16T00:40:59.731Z,2.60
2022-08-16T00:41:59.772Z,3.00
2022-08-16T00:42:59.692Z,3.00
2022-08-16T00:43:59.662Z,2.90
2022-08-16T00:44:59.651Z,3.00
2022-08-16T00:46:00.645Z,3.00
2022-08-16T00:47:02.411Z,2.80
2022-08-16T00:48:00.639Z,3.20
2022-08-16T00:48:59.654Z,2.80
2022-08-16T00:49:59.645Z,3.10
2022-08-16T00:50:59.644Z,2.70
2022-08-16T00:51:59.571Z,3.10
2022-08-16T00:52:59.874Z,3.10
2022-08-16T00:53:59.548Z,2.90
2022-08-16T00:54:59.617Z,2.90
2022-08-16T00:55:59.593Z,3.00
2022-08-16T00:57:00.101Z,2.70
2022-08-16T00:58:00.799Z,3.00
2022-08-16T00:59:01.251Z,3.10
2022-08-16T00:59:59.732Z,3.30
2022-08-16T01:00:59.517Z,3.10
2022-08-16T01:01:59.456Z,3.30
2022-08-16T01:03:00.156Z,3.00
2022-08-16T01:03:59.399Z,2.70
2022-08-16T01:05:09.510Z,2.90
2022-08-16T01:06:00.379Z,3.10
2022-08-16T01:07:02.124Z,2.80
2022-08-16T01:07:59.730Z,3.20
2022-08-16T01:09:00.078Z,3.10
2022-08-16T01:09:59.335Z,2.80
2022-08-16T01:10:59.914Z,3.00
2022-08-16T01:11:59.325Z,2.80
2022-08-16T01:13:00.377Z,3.00
2022-08-16T01:13:59.351Z,3.10
2022-08-16T01:14:59.266Z,2.80
2022-08-16T01:15:59.334Z,3.00
2022-08-16T01:16:59.248Z,3.30
2022-08-16T01:17:59.326Z,2.90
2022-08-16T01:18:59.264Z,3.00
2022-08-16T01:19:59.223Z,2.90
2022-08-16T01:20:59.253Z,3.10
2022-08-16T01:22:47.606Z,3.10
2022-08-16T01:23:00.398Z,3.20
2022-08-16T01:24:02.097Z,3.00
2022-08-16T01:24:59.203Z,2.90
2022-08-16T01:26:00.284Z,3.10
2022-08-16T01:27:03.673Z,3.10
2022-08-16T01:27:59.105Z,2.90
2022-08-16T01:28:59.124Z,2.80
2022-08-16T01:29:59.894Z,3.40
2022-08-16T01:30:59.090Z,3.40
2022-08-16T01:31:59.131Z,3.30
2022-08-16T01:33:02.971Z,3.10
2022-08-16T01:34:00.050Z,3.20
2022-08-16T01:34:59.037Z,3.10
2022-08-16T01:35:59.020Z,3.10
2022-08-16T01:36:59.035Z,3.00
2022-08-16T01:37:58.971Z,3.20
2022-08-16T01:38:58.974Z,3.00
2022-08-16T01:39:59.032Z,3.20
2022-08-16T01:41:01.981Z,3.30
2022-08-16T01:41:58.980Z,3.00
2022-08-16T01:42:58.933Z,3.50
2022-08-16T01:44:01.231Z,3.20
2022-08-16T01:44:58.939Z,3.60
2022-08-16T01:45:58.858Z,3.10
2022-08-16T01:46:58.917Z,3.60
2022-08-16T01:47:58.868Z,3.40
2022-08-16T01:48:58.817Z,3.40
2022-08-16T01:50:43.049Z,3.30
2022-08-16T01:51:09.080Z,3.20
2022-08-16T01:51:59.807Z,3.10
2022-08-16T01:52:58.776Z,3.00
2022-08-16T01:53:58.758Z,3.20
2022-08-16T01:54:59.435Z,2.90
2022-08-16T01:55:58.806Z,2.80
2022-08-16T01:56:58.727Z,3.00
2022-08-16T01:57:58.697Z,3.10
2022-08-16T01:58:58.707Z,3.20
2022-08-16T01:59:58.699Z,3.00
2022-08-16T02:00:58.689Z,3.20
2022-08-16T02:01:59.853Z,3.40
2022-08-16T02:02:58.661Z,3.10
2022-08-16T02:04:11.111Z,2.90
2022-08-16T02:04:59.639Z,3.20
2022-08-16T02:05:58.596Z,3.20
2022-08-16T02:06:58.603Z,3.30
2022-08-16T02:07:58.567Z,3.10
2022-08-16T02:08:58.585Z,3.60
2022-08-16T02:09:59.621Z,3.60
2022-08-16T02:10:58.555Z,3.40
2022-08-16T02:11:58.565Z,3.40
2022-08-16T02:13:00.171Z,3.30
2022-08-16T02:13:58.509Z,2.90
2022-08-16T02:14:59.514Z,3.20
2022-08-16T02:15:58.478Z,3.30
2022-08-16T02:16:58.466Z,3.40
2022-08-16T02:17:58.438Z,3.40
2022-08-16T02:18:58.423Z,3.50
2022-08-16T02:20:00.656Z,3.50
2022-08-16T02:20:58.417Z,3.30
2022-08-16T02:22:07.634Z,3.40
2022-08-16T02:22:59.636Z,3.40
2022-08-16T02:23:58.439Z,3.40
2022-08-16T02:24:58.352Z,3.50
2022-08-16T02:25:59.997Z,3.40
2022-08-16T02:26:58.323Z,3.50
2022-08-16T02:27:58.302Z,3.40
2022-08-16T02:28:58.306Z,3.80
2022-08-16T02:30:05.314Z,3.50
2022-08-16T02:30:59.336Z,4.10
2022-08-16T02:32:04.045Z,3.80
2022-08-16T02:32:59.279Z,4.20
2022-08-16T02:33:58.259Z,3.90
2022-08-16T02:34:58.272Z,3.80
2022-08-16T02:35:59.985Z,3.90
2022-08-16T02:36:58.190Z,3.50
2022-08-16T02:38:01.827Z,4.10
2022-08-16T02:38:59.174Z,4.30
2022-08-16T02:39:58.173Z,4.50
2022-08-16T02:40:59.031Z,3.70
2022-08-16T02:41:58.118Z,4.00
2022-08-16T02:42:58.130Z,3.90
2022-08-16T02:43:58.098Z,4.00
2022-08-16T02:44:58.117Z,4.10
2022-08-16T02:45:59.080Z,3.80
2022-08-16T02:46:58.095Z,4.00
2022-08-16T02:48:01.840Z,3.90
2022-08-16T02:49:00.364Z,3.80
2022-08-16T02:50:52.722Z,3.60
2022-08-16T02:51:08.063Z,4.00
2022-08-16T02:51:58.987Z,4.00
2022-08-16T02:52:58.090Z,3.90
2022-08-16T02:53:57.975Z,4.00
2022-08-16T02:54:57.998Z,3.80
2022-08-16T02:55:57.965Z,4.40
2022-08-16T02:56:57.932Z,3.90
2022-08-16T02:57:57.940Z,4.10
2022-08-16T02:58:57.962Z,4.10
2022-08-16T02:59:57.926Z,3.90
2022-08-16T03:00:57.995Z,4.20
2022-08-16T03:01:57.990Z,3.70
2022-08-16T03:02:57.907Z,4.20
2022-08-16T03:04:28.910Z,4.40
2022-08-16T03:04:58.959Z,4.20
2022-08-16T03:05:57.832Z,4.30
2022-08-16T03:06:57.807Z,4.70
2022-08-16T03:07:57.841Z,4.10
2022-08-16T03:08:57.818Z,4.10
2022-08-16T03:10:00.490Z,4.30
2022-08-16T03:10:59.332Z,4.40
2022-08-16T03:11:57.770Z,4.20
2022-08-16T03:12:58.253Z,4.30
2022-08-16T03:13:57.740Z,4.30
2022-08-16T03:14:57.776Z,4.20
2022-08-16T03:15:57.717Z,3.70
2022-08-16T03:16:59.212Z,4.20
2022-08-16T03:17:57.672Z,4.10
2022-08-16T03:18:57.667Z,3.90
2022-08-16T03:20:00.410Z,4.30
2022-08-16T03:20:58.622Z,4.30
2022-08-16T03:21:57.634Z,4.70
2022-08-16T03:22:57.606Z,4.50
2022-08-16T03:23:57.604Z,4.10
2022-08-16T03:24:57.876Z,4.30
2022-08-16T03:25:57.608Z,4.60
2022-08-16T03:26:58.034Z,4.60
2022-08-16T03:27:57.561Z,4.50
2022-08-16T03:28:57.569Z,4.20
2022-08-16T03:29:57.535Z,4.40
2022-08-16T03:30:57.542Z,4.80
2022-08-16T03:31:57.519Z,4.20
2022-08-16T03:32:57.524Z,4.40
2022-08-16T03:33:57.449Z,4.50
2022-08-16T03:34:57.479Z,4.50
2022-08-16T03:35:57.454Z,4.60
2022-08-16T03:36:57.430Z,4.20
2022-08-16T03:38:03.306Z,4.40
2022-08-16T03:38:58.442Z,4.20
2022-08-16T03:40:03.057Z,4.50
2022-08-16T03:40:58.376Z,4.20
2022-08-16T03:41:59.838Z,4.50
2022-08-16T03:43:19.055Z,4.50
2022-08-16T03:43:58.323Z,4.70
2022-08-16T03:45:03.331Z,4.50
2022-08-16T03:45:58.313Z,4.60
2022-08-16T03:46:58.319Z,4.60
2022-08-16T03:47:59.755Z,4.10
2022-08-16T03:48:57.286Z,4.60
2022-08-16T03:49:57.271Z,4.50
2022-08-16T03:50:59.906Z,4.90
2022-08-16T03:51:57.244Z,4.30
2022-08-16T03:53:03.153Z,4.60
2022-08-16T03:54:01.239Z,4.40
2022-08-16T03:54:58.266Z,4.90
2022-08-16T03:55:57.229Z,4.70
2022-08-16T03:56:58.595Z,4.70
2022-08-16T03:57:57.193Z,5.10
2022-08-16T03:58:57.202Z,4.70
2022-08-16T03:59:57.132Z,4.30
2022-08-16T04:00:59.433Z,4.30
2022-08-16T04:01:57.099Z,4.90
2022-08-16T04:02:57.110Z,4.60
2022-08-16T04:03:57.142Z,4.40
2022-08-16T04:04:57.069Z,4.80
2022-08-16T04:05:57.048Z,4.40
2022-08-16T04:06:57.040Z,4.30
2022-08-16T04:07:57.032Z,4.80
2022-08-16T04:08:57.047Z,4.20
2022-08-16T04:09:57.035Z,4.50
2022-08-16T04:10:57.980Z,4.70
2022-08-16T04:11:57.042Z,4.60
2022-08-16T04:13:01.963Z,5.30
2022-08-16T04:14:01.492Z,4.50
2022-08-16T04:14:58.351Z,4.90
2022-08-16T04:15:56.960Z,4.50
2022-08-16T04:16:56.914Z,4.70
2022-08-16T04:17:56.943Z,5.00
2022-08-16T04:19:02.105Z,4.40
2022-08-16T04:19:58.253Z,4.60
2022-08-16T04:20:56.887Z,5.20
2022-08-16T04:21:56.884Z,4.40
2022-08-16T04:22:56.825Z,4.50
2022-08-16T04:23:56.814Z,4.90
2022-08-16T04:24:59.450Z,4.60
2022-08-16T04:25:56.855Z,4.70
2022-08-16T04:26:57.783Z,4.50
2022-08-16T04:27:56.786Z,5.00
2022-08-16T04:29:15.192Z,4.90
2022-08-16T04:30:03.344Z,4.90
2022-08-16T04:30:57.757Z,5.00
2022-08-16T04:31:57.984Z,5.10
2022-08-16T04:32:56.712Z,4.50
2022-08-16T04:33:56.684Z,5.20
2022-08-16T04:34:56.691Z,5.10
2022-08-16T04:35:56.673Z,4.90
2022-08-16T04:36:56.952Z,5.40
2022-08-16T04:37:56.654Z,5.30
2022-08-16T04:38:56.637Z,5.20
2022-08-16T04:39:57.263Z,4.90
2022-08-16T04:40:56.602Z,5.10
2022-08-16T04:41:57.400Z,5.20
2022-08-16T04:42:56.612Z,5.20
2022-08-16T04:43:56.680Z,5.30
2022-08-16T04:44:56.562Z,5.30
2022-08-16T04:46:00.882Z,5.40
2022-08-16T04:47:02.281Z,5.70
2022-08-16T04:47:57.539Z,5.30
2022-08-16T04:48:56.509Z,5.40
2022-08-16T04:49:56.545Z,5.40
2022-08-16T04:50:56.471Z,5.70
2022-08-16T04:51:56.567Z,6.20
2022-08-16T04:52:56.450Z,5.00
2022-08-16T04:53:56.480Z,5.80
2022-08-16T04:54:56.418Z,5.70
2022-08-16T04:55:56.409Z,5.50
2022-08-16T04:56:56.408Z,5.30
2022-08-16T04:57:56.487Z,5.80
2022-08-16T04:58:57.682Z,5.60
2022-08-16T04:59:56.571Z,5.70
2022-08-16T05:00:56.396Z,5.40
2022-08-16T05:01:58.794Z,5.90
2022-08-16T05:02:58.819Z,5.50
2022-08-16T05:04:00.275Z,5.70
2022-08-16T05:04:57.296Z,5.70
2022-08-16T05:05:59.752Z,5.70
2022-08-16T05:06:57.285Z,5.90
2022-08-16T05:07:59.507Z,6.10
2022-08-16T05:08:56.399Z,5.20
2022-08-16T05:09:56.256Z,5.60
2022-08-16T05:11:01.351Z,5.80
2022-08-16T05:11:57.656Z,5.60
2022-08-16T05:12:56.697Z,5.50
2022-08-16T05:13:56.186Z,6.00
2022-08-16T05:15:01.764Z,5.50
2022-08-16T05:15:57.845Z,5.80
2022-08-16T05:16:56.298Z,5.90
2022-08-16T05:17:58.749Z,5.60
2022-08-16T05:18:56.832Z,5.30
2022-08-16T05:19:57.197Z,5.40
2022-08-16T05:21:01.499Z,5.30
2022-08-16T05:21:57.083Z,5.60
2022-08-16T05:22:56.120Z,5.40
2022-08-16T05:23:58.598Z,6.20
2022-08-16T05:24:56.052Z,5.50
2022-08-16T05:25:56.044Z,6.90
2022-08-16T05:26:56.754Z,7.00
2022-08-16T05:27:56.560Z,7.10
2022-08-16T05:28:56.126Z,6.30
2022-08-16T05:30:00.907Z,5.40
2022-08-16T05:30:56.983Z,5.60
2022-08-16T05:31:55.965Z,5.80
2022-08-16T05:32:56.021Z,5.90
2022-08-16T05:33:55.921Z,5.60
2022-08-16T05:34:55.951Z,5.40
2022-08-16T05:35:56.101Z,5.40
2022-08-16T05:36:55.920Z,5.90
2022-08-16T05:37:55.920Z,5.60
2022-08-16T05:38:55.942Z,5.70
2022-08-16T05:39:55.892Z,5.50
2022-08-16T05:40:59.841Z,5.50
2022-08-16T05:41:55.935Z,5.50
2022-08-16T05:42:56.240Z,5.10
2022-08-16T05:43:58.978Z,5.10
2022-08-16T05:44:55.816Z,5.20
2022-08-16T05:45:55.777Z,5.30
2022-08-16T05:46:56.009Z,5.10
2022-08-16T05:48:00.389Z,5.20
2022-08-16T05:49:01.688Z,4.90
2022-08-16T05:49:56.749Z,5.10
2022-08-16T05:50:55.696Z,5.40
2022-08-16T05:51:55.789Z,5.40
2022-08-16T05:52:55.668Z,5.10
2022-08-16T05:53:55.679Z,5.40
2022-08-16T05:55:01.634Z,5.30
2022-08-16T05:55:56.673Z,5.00
2022-08-16T05:56:55.666Z,5.20
2022-08-16T05:57:55.610Z,4.90
2022-08-16T05:58:55.697Z,5.40
2022-08-16T05:59:59.881Z,5.80
2022-08-16T06:00:56.584Z,5.80
2022-08-16T06:01:55.609Z,5.20
2022-08-16T06:02:55.536Z,5.30
2022-08-16T06:03:55.545Z,5.00
2022-08-16T06:04:55.559Z,5.30
2022-08-16T06:05:55.518Z,5.60
2022-08-16T06:06:56.788Z,5.60
2022-08-16T06:07:58.307Z,5.90
2022-08-16T06:08:55.483Z,5.30
2022-08-16T06:09:55.484Z,5.80
2022-08-16T06:11:09.829Z,5.30
2022-08-16T06:11:56.434Z,5.20
2022-08-16T06:12:55.979Z,5.50
2022-08-16T06:13:55.538Z,5.60
2022-08-16T06:14:55.391Z,5.30
2022-08-16T06:15:55.374Z,5.30
2022-08-16T06:16:55.372Z,5.60
2022-08-16T06:17:55.365Z,5.60
2022-08-16T06:18:55.367Z,5.20
2022-08-16T06:19:55.342Z,5.10
2022-08-16T06:20:56.169Z,5.90
2022-08-16T06:21:56.138Z,5.50
2022-08-16T06:22:57.502Z,5.30
2022-08-16T06:23:55.309Z,5.40
2022-08-16T06:24:55.994Z,5.50
2022-08-16T06:25:55.269Z,5.70
2022-08-16T06:26:57.423Z,5.70
2022-08-16T06:27:57.443Z,5.20
2022-08-16T06:28:55.242Z,5.40
2022-08-16T06:29:55.191Z,4.70
2022-08-16T06:30:55.181Z,5.00
2022-08-16T06:31:55.181Z,5.10
2022-08-16T06:32:55.187Z,4.90
2022-08-16T06:33:55.185Z,5.20
2022-08-16T06:35:02.047Z,5.10
2022-08-16T06:35:59.734Z,5.20
2022-08-16T06:36:59.476Z,5.10
2022-08-16T06:37:55.100Z,5.30
2022-08-16T06:38:56.162Z,5.00
2022-08-16T06:39:55.106Z,5.40
2022-08-16T06:40:55.050Z,4.60
2022-08-16T06:41:55.103Z,4.60
2022-08-16T06:42:57.452Z,4.70
2022-08-16T06:43:55.063Z,5.00
2022-08-16T06:44:55.008Z,5.40
2022-08-16T06:45:55.104Z,4.80
2022-08-16T06:46:54.990Z,4.90
2022-08-16T06:47:56.569Z,5.00
2022-08-16T06:48:54.957Z,5.10
2022-08-16T06:49:54.945Z,4.60
2022-08-16T06:50:54.936Z,5.40
2022-08-16T06:51:54.943Z,4.80
2022-08-16T06:53:00.697Z,4.90
2022-08-16T06:53:55.878Z,4.60
2022-08-16T06:54:54.875Z,4.60
2022-08-16T06:55:54.877Z,4.40
2022-08-16T06:56:55.322Z,4.50
2022-08-16T06:57:54.837Z,4.70
2022-08-16T06:58:54.823Z,4.20
2022-08-16T06:59:58.351Z,4.40
2022-08-16T07:00:54.841Z,4.20
2022-08-16T07:01:55.439Z,4.60
2022-08-16T07:02:55.203Z,4.20
2022-08-16T07:03:57.497Z,4.10
2022-08-16T07:04:54.745Z,4.20
2022-08-16T07:05:54.737Z,4.10
2022-08-16T07:06:54.735Z,4.10
2022-08-16T07:07:55.129Z,4.20
2022-08-16T07:08:54.691Z,3.90
2022-08-16T07:09:54.724Z,4.30
2022-08-16T07:10:54.683Z,4.10
2022-08-16T07:11:54.688Z,3.80
2022-08-16T07:13:04.105Z,4.10
2022-08-16T07:14:22.995Z,4.00
2022-08-16T07:14:59.903Z,4.10
2022-08-16T07:15:55.645Z,3.90
2022-08-16T07:16:54.634Z,4.40
2022-08-16T07:17:54.575Z,4.20
2022-08-16T07:19:01.612Z,4.30
2022-08-16T07:20:03.778Z,4.20
2022-08-16T07:20:59.952Z,4.10
2022-08-16T07:21:59.639Z,3.90
2022-08-16T07:22:58.860Z,4.10
2022-08-16T07:23:57.912Z,4.00
2022-08-16T07:24:55.515Z,3.90
2022-08-16T07:25:54.470Z,3.70
2022-08-16T07:26:54.482Z,4.10
2022-08-16T07:27:54.443Z,3.90
2022-08-16T07:28:54.432Z,4.00
2022-08-16T07:29:55.505Z,3.80
2022-08-16T07:30:54.431Z,4.10
2022-08-16T07:31:54.452Z,3.80
2022-08-16T07:32:54.391Z,4.10
2022-08-16T07:33:54.893Z,4.00
2022-08-16T07:34:54.350Z,4.10
2022-08-16T07:35:54.358Z,4.10
2022-08-16T07:36:58.207Z,4.20
2022-08-16T07:37:54.350Z,4.00
2022-08-16T07:38:54.324Z,4.20
2022-08-16T07:39:54.651Z,3.70
2022-08-16T07:41:02.118Z,3.70
2022-08-16T07:41:55.319Z,3.90
2022-08-16T07:42:54.259Z,3.90
2022-08-16T07:43:54.283Z,4.20
2022-08-16T07:44:54.272Z,4.40
2022-08-16T07:45:54.292Z,4.30
2022-08-16T07:46:55.620Z,4.20
2022-08-16T07:47:54.220Z,3.90
2022-08-16T07:48:55.180Z,4.10
2022-08-16T07:49:58.137Z,4.00
2022-08-16T07:50:55.809Z,4.60
2022-08-16T07:51:56.037Z,4.10
2022-08-16T07:52:54.119Z,4.30
2022-08-16T07:54:09.442Z,4.00
2022-08-16T07:54:55.320Z,4.00
2022-08-16T07:55:54.085Z,4.00
2022-08-16T07:56:54.213Z,3.80
2022-08-16T07:57:59.765Z,4.30
2022-08-16T07:58:55.518Z,4.10
2022-08-16T07:59:57.148Z,4.20
2022-08-16T08:00:54.084Z,4.40
2022-08-16T08:01:54.038Z,4.50
2022-08-16T08:02:53.995Z,4.40
2022-08-16T08:03:54.005Z,4.40
2022-08-16T08:04:53.984Z,4.30
2022-08-16T08:05:54.033Z,4.30
2022-08-16T08:06:53.952Z,4.40
2022-08-16T08:07:53.987Z,4.60
2022-08-16T08:08:57.530Z,4.20
2022-08-16T08:09:54.934Z,4.40
2022-08-16T08:10:53.908Z,4.10
2022-08-16T08:11:59.821Z,4.20
2022-08-16T08:12:55.074Z,4.00
2022-08-16T08:13:53.972Z,4.30
2022-08-16T08:14:53.937Z,4.30
2022-08-16T08:15:53.841Z,4.40
2022-08-16T08:16:53.843Z,4.40
2022-08-16T08:17:53.802Z,4.20
2022-08-16T08:18:56.117Z,4.10
2022-08-16T08:19:54.793Z,4.10
2022-08-16T08:20:58.897Z,4.20
2022-08-16T08:22:01.393Z,4.20
2022-08-16T08:23:00.804Z,3.80
2022-08-16T08:23:54.760Z,4.20
2022-08-16T08:24:53.761Z,4.10
2022-08-16T08:25:55.845Z,4.20
2022-08-16T08:26:53.724Z,4.10
2022-08-16T08:27:57.478Z,4.40
2022-08-16T08:28:53.663Z,4.20
2022-08-16T08:30:49.016Z,4.30
2022-08-16T08:31:00.622Z,4.60
2022-08-16T08:31:54.632Z,4.50
2022-08-16T08:33:00.020Z,4.50
2022-08-16T08:33:54.648Z,4.80
2022-08-16T08:34:53.596Z,4.30
2022-08-16T08:35:53.605Z,4.60
2022-08-16T08:36:54.488Z,4.90
2022-08-16T08:37:55.103Z,4.30
2022-08-16T08:38:53.547Z,4.30
2022-08-16T08:39:55.248Z,4.30
2022-08-16T08:40:53.510Z,4.90
2022-08-16T08:41:53.553Z,4.90
2022-08-16T08:42:57.389Z,4.80
2022-08-16T08:43:54.536Z,4.60
2022-08-16T08:44:53.472Z,5.00
2022-08-16T08:45:53.759Z,4.50
2022-08-16T08:47:00.671Z,5.00
2022-08-16T08:47:58.616Z,4.90
2022-08-16T08:48:59.607Z,4.60
2022-08-16T08:49:55.554Z,4.60
2022-08-16T08:50:53.397Z,5.10
2022-08-16T08:51:53.408Z,4.50
2022-08-16T08:52:53.399Z,4.80
2022-08-16T08:53:57.903Z,4.70
2022-08-16T08:54:54.340Z,5.10
2022-08-16T08:55:59.007Z,4.70
2022-08-16T08:56:54.385Z,4.60
2022-08-16T08:57:53.321Z,5.00
2022-08-16T08:58:54.941Z,5.00
2022-08-16T08:59:54.366Z,5.50
2022-08-16T09:00:53.253Z,4.90
2022-08-16T09:01:57.853Z,5.10
2022-08-16T09:02:54.443Z,5.00
2022-08-16T09:03:53.268Z,5.00
2022-08-16T09:04:53.253Z,4.60
2022-08-16T09:05:53.183Z,5.00
2022-08-16T09:06:53.244Z,4.60
2022-08-16T09:08:00.551Z,4.80
2022-08-16T09:08:54.183Z,4.80
2022-08-16T09:10:06.176Z,5.00
2022-08-16T09:10:58.906Z,5.10
2022-08-16T09:12:04.431Z,4.80
2022-08-16T09:12:54.163Z,4.60
2022-08-16T09:13:53.106Z,4.80
2022-08-16T09:14:53.171Z,5.00
2022-08-16T09:15:53.066Z,4.70
2022-08-16T09:17:01.461Z,4.80
2022-08-16T09:17:54.948Z,4.60
2022-08-16T09:18:56.850Z,4.80
2022-08-16T09:19:55.694Z,4.80
2022-08-16T09:20:59.374Z,5.20
2022-08-16T09:21:56.171Z,4.70
2022-08-16T09:22:53.200Z,4.90
2022-08-16T09:23:52.983Z,5.10
2022-08-16T09:24:58.163Z,4.90
2022-08-16T09:25:53.959Z,5.00
2022-08-16T09:26:52.946Z,4.80
2022-08-16T09:27:56.772Z,4.60
2022-08-16T09:29:15.314Z,4.60
2022-08-16T09:30:00.083Z,4.40
2022-08-16T09:30:53.871Z,4.70
2022-08-16T09:31:53.648Z,4.00
2022-08-16T09:32:52.841Z,4.50
2022-08-16T09:33:52.849Z,4.50
2022-08-16T09:34:52.821Z,4.90
2022-08-16T09:35:53.326Z,4.60
2022-08-16T09:36:54.582Z,4.40
2022-08-16T09:38:00.471Z,4.50
2022-08-16T09:38:53.788Z,4.60
2022-08-16T09:39:53.860Z,4.80
2022-08-16T09:40:53.236Z,4.90
2022-08-16T09:41:53.449Z,4.30
2022-08-16T09:42:56.624Z,4.10
2022-08-16T09:44:00.702Z,4.30
2022-08-16T09:45:10.545Z,4.10
2022-08-16T09:45:54.475Z,4.30
2022-08-16T09:46:57.513Z,4.30
2022-08-16T09:47:57.094Z,4.50
2022-08-16T09:48:52.664Z,4.20
2022-08-16T09:49:53.317Z,4.10
2022-08-16T09:50:52.618Z,4.60
2022-08-16T09:51:52.617Z,4.00
2022-08-16T09:52:52.587Z,4.10
2022-08-16T09:53:53.825Z,4.00
2022-08-16T09:54:52.598Z,4.40
2022-08-16T09:55:52.557Z,3.90
2022-08-16T09:56:56.485Z,4.30
2022-08-16T09:57:53.126Z,4.00
2022-08-16T09:59:05.701Z,4.60
2022-08-16T09:59:56.096Z,4.20
2022-08-16T10:00:52.498Z,4.20
2022-08-16T10:01:52.478Z,4.20
2022-08-16T10:02:52.475Z,3.80
2022-08-16T10:04:01.944Z,4.50
2022-08-16T10:04:55.074Z,4.30
2022-08-16T10:05:52.423Z,4.10
2022-08-16T10:06:52.469Z,4.30
2022-08-16T10:07:55.974Z,4.50
2022-08-16T10:09:04.399Z,4.00
2022-08-16T10:09:54.834Z,4.30
2022-08-16T10:10:52.358Z,4.50
2022-08-16T10:11:52.362Z,4.40
2022-08-16T10:12:55.701Z,4.10
2022-08-16T10:13:52.338Z,4.10
2022-08-16T10:14:52.321Z,4.30
2022-08-16T10:15:55.212Z,4.30
2022-08-16T10:16:57.489Z,4.20
2022-08-16T10:18:01.562Z,4.20
2022-08-16T10:19:06.695Z,4.30
2022-08-16T10:19:53.252Z,4.40
2022-08-16T10:20:52.250Z,4.00
2022-08-16T10:21:56.042Z,4.30
2022-08-16T10:22:58.775Z,4.20
2022-08-16T10:23:53.694Z,4.40
2022-08-16T10:24:55.803Z,4.30
2022-08-16T10:27:16.312Z,3.90
2022-08-16T10:27:20.323Z,4.30
2022-08-16T10:27:56.888Z,4.10
2022-08-16T10:28:53.161Z,4.80
2022-08-16T10:30:00.359Z,4.10
2022-08-16T10:30:56.310Z,4.20
2022-08-16T10:31:53.987Z,4.40
2022-08-16T10:32:52.111Z,4.30
2022-08-16T10:33:52.105Z,4.10
2022-08-16T10:34:52.365Z,4.00
2022-08-16T10:35:52.474Z,3.90
2022-08-16T10:36:54.294Z,4.20
2022-08-16T10:37:52.294Z,3.90
2022-08-16T10:38:52.187Z,4.30
2022-08-16T10:39:52.174Z,4.50
2022-08-16T10:40:52.026Z,4.20
2022-08-16T10:41:51.960Z,4.40
2022-08-16T10:42:51.976Z,3.90
2022-08-16T10:43:52.151Z,4.00
2022-08-16T10:44:54.028Z,4.00
2022-08-16T10:46:00.555Z,3.90
2022-08-16T10:46:53.004Z,4.20
2022-08-16T10:48:02.710Z,3.80
2022-08-16T10:48:52.949Z,4.10
2022-08-16T10:49:51.931Z,3.90
2022-08-16T10:50:51.873Z,4.40
2022-08-16T10:52:01.528Z,4.30
2022-08-16T10:52:56.848Z,4.00
2022-08-16T10:53:52.830Z,3.80
2022-08-16T10:54:59.418Z,3.60
2022-08-16T10:55:57.797Z,4.40
2022-08-16T10:56:56.803Z,3.60
2022-08-16T10:57:51.768Z,4.20
2022-08-16T10:58:51.751Z,4.10
2022-08-16T10:59:58.249Z,3.80
2022-08-16T11:00:57.271Z,3.60
2022-08-16T11:02:59.696Z,4.10
2022-08-16T11:03:56.969Z,4.40
2022-08-16T11:05:09.024Z,4.00
2022-08-16T11:06:00.096Z,3.90
2022-08-16T11:07:08.753Z,3.90
2022-08-16T11:07:53.783Z,4.10
2022-08-16T11:09:20.847Z,3.60
2022-08-16T11:09:52.643Z,3.80
2022-08-16T11:11:04.972Z,4.10
2022-08-16T11:12:14.198Z,4.00
2022-08-16T11:12:52.944Z,4.30
2022-08-16T11:14:00.019Z,3.80
2022-08-16T11:15:55.430Z,3.80
2022-08-16T11:17:10.926Z,3.80
2022-08-16T11:18:48.238Z,3.30
2022-08-16T11:19:06.088Z,3.90
2022-08-16T11:20:52.479Z,4.00
2022-08-16T11:22:52.450Z,3.90
2022-08-16T11:23:57.967Z,3.70
2022-08-16T11:26:10.408Z,3.40
2022-08-16T11:27:18.697Z,3.70
2022-08-16T11:27:52.397Z,3.80
2022-08-16T11:29:52.485Z,3.80
2022-08-16T11:30:57.319Z,3.60
2022-08-16T11:31:54.026Z,3.70
2022-08-16T11:32:51.336Z,3.50
2022-08-16T11:33:52.767Z,3.60
2022-08-16T11:35:10.645Z,3.60
2022-08-16T11:36:53.874Z,3.30
2022-08-16T11:38:47.121Z,4.00
2022-08-16T11:38:57.593Z,3.60
2022-08-16T11:39:59.653Z,4.10
2022-08-16T11:40:53.138Z,3.50
2022-08-16T11:41:53.125Z,3.10
2022-08-16T11:42:51.194Z,3.50
2022-08-16T11:43:51.409Z,3.50
2022-08-16T11:44:56.175Z,3.80
2022-08-16T11:45:54.280Z,3.40
2022-08-16T11:46:51.143Z,3.20
2022-08-16T11:47:51.197Z,3.80
2022-08-16T11:48:51.114Z,3.70
2022-08-16T11:49:51.099Z,3.60
2022-08-16T11:50:51.145Z,3.50
2022-08-16T11:51:51.102Z,3.20
2022-08-16T11:52:51.072Z,3.40
2022-08-16T11:53:51.796Z,3.50
2022-08-16T11:54:57.061Z,3.50
2022-08-16T11:55:54.590Z,4.00
2022-08-16T11:56:52.476Z,3.90
2022-08-16T11:57:56.343Z,3.50
2022-08-16T11:58:56.925Z,3.30
2022-08-16T11:59:51.970Z,3.20
2022-08-16T12:00:52.888Z,3.30
2022-08-16T12:01:59.085Z,3.50
2022-08-16T12:02:51.981Z,3.50
2022-08-16T12:03:50.975Z,3.20
2022-08-16T12:04:51.783Z,3.50
2022-08-16T12:05:51.999Z,3.30
2022-08-16T12:06:53.549Z,3.50
2022-08-16T12:07:50.896Z,3.60
2022-08-16T12:08:51.002Z,3.50
2022-08-16T12:09:50.859Z,3.60
2022-08-16T12:10:50.893Z,3.40
2022-08-16T12:11:52.770Z,3.50
2022-08-16T12:12:50.868Z,3.70
2022-08-16T12:13:50.800Z,3.50
2022-08-16T12:14:59.218Z,3.50
2022-08-16T12:15:51.786Z,3.40
2022-08-16T12:16:55.678Z,3.60
2022-08-16T12:17:51.979Z,3.60
2022-08-16T12:18:50.761Z,3.70
2022-08-16T12:19:50.728Z,3.50
2022-08-16T12:20:50.780Z,3.40
2022-08-16T12:21:58.950Z,3.70
2022-08-16T12:22:51.695Z,3.40
2022-08-16T12:23:50.687Z,3.40
2022-08-16T12:24:52.052Z,3.50
2022-08-16T12:25:51.018Z,3.60
2022-08-16T12:26:50.656Z,3.20
2022-08-16T12:27:50.655Z,3.70
2022-08-16T12:28:54.895Z,3.30
2022-08-16T12:29:51.645Z,3.40
2022-08-16T12:30:50.637Z,3.50
2022-08-16T12:32:01.353Z,3.40
2022-08-16T12:32:53.155Z,3.50
2022-08-16T12:33:50.680Z,3.40
2022-08-16T12:34:53.091Z,3.30
2022-08-16T12:35:50.557Z,3.50
2022-08-16T12:36:50.536Z,3.40
2022-08-16T12:37:56.544Z,3.70
2022-08-16T12:38:53.173Z,3.60
2022-08-16T12:39:51.101Z,3.40
2022-08-16T12:40:50.525Z,3.50
2022-08-16T12:41:50.451Z,3.50
2022-08-16T12:42:53.006Z,3.40
2022-08-16T12:43:50.441Z,3.60
2022-08-16T12:44:50.478Z,3.40
2022-08-16T12:45:50.518Z,3.20
2022-08-16T12:46:50.904Z,3.70
2022-08-16T12:47:50.413Z,3.80
2022-08-16T12:48:50.434Z,3.50
2022-08-16T12:49:50.459Z,3.20
2022-08-16T12:50:50.631Z,3.80
2022-08-16T12:51:58.599Z,3.50
2022-08-16T12:52:52.810Z,3.40
2022-08-16T12:53:50.431Z,3.20
2022-08-16T12:54:55.056Z,3.60
2022-08-16T12:55:51.289Z,3.40
2022-08-16T12:56:50.496Z,3.60
2022-08-16T12:57:58.605Z,3.70
2022-08-16T12:58:52.048Z,3.40
2022-08-16T12:59:50.234Z,3.30
2022-08-16T13:00:50.343Z,3.80
2022-08-16T13:01:55.294Z,3.50
2022-08-16T13:02:51.472Z,3.40
2022-08-16T13:03:59.121Z,3.70
2022-08-16T13:04:51.188Z,3.40
2022-08-16T13:05:55.408Z,3.90
2022-08-16T13:06:52.128Z,4.10
2022-08-16T13:07:51.904Z,3.80
2022-08-16T13:08:50.120Z,4.00
2022-08-16T13:09:50.139Z,3.60
2022-08-16T13:10:50.720Z,3.50
2022-08-16T13:11:57.849Z,3.40
2022-08-16T13:12:51.059Z,3.50
2022-08-16T13:13:54.834Z,3.40
2022-08-16T13:14:51.094Z,3.30
2022-08-16T13:15:55.540Z,3.40
2022-08-16T13:16:51.008Z,3.40
2022-08-16T13:17:50.167Z,3.60
2022-08-16T13:18:51.758Z,3.40
2022-08-16T13:20:50.957Z,3.30
2022-08-16T13:21:50.023Z,3.20
2022-08-16T13:22:49.971Z,3.50
2022-08-16T13:23:49.929Z,3.60
2022-08-16T13:24:49.938Z,3.30
2022-08-16T13:25:49.994Z,3.60